Time,TemperatureF,DewpointF,PressureIn,WindDirection,WindDirectionDegrees,WindSpeedMPH,WindSpeedGustMPH,Humidity,HourlyPrecipIn,Conditions,Clouds,dailyrainin,SoftwareType,DateUTC
2013-01-19 00:04:00,27.3,8.1,32.37,North,0,0.0,0.0,44,0.00,NA,NA,-99.99,wxupload 3.4,2013-01-19 05:04:00,
2013-01-19 00:06:00,27.3,8.1,32.37,North,0,0.0,0.0,44,0.00,NA,NA,-99.99,wxupload 3.4,2013-01-19 05:06:00,
2013-01-19 00:13:00,27.5,8.3,32.37,North,0,0.0,0.0,44,0.00,NA,NA,-99.99,wxupload 3.4,2013-01-19 05:13:00,
2013-01-19 00:18:00,27.3,8.1,32.37,North,0,0.0,0.0,44,0.00,NA,NA,-99.99,wxupload 3.4,2013-01-19 05:18:00,
2013-01-19 00:24:00,27.1,8.0,32.37,North,0,0.0,0.0,44,0.00,NA,NA,-99.99,wxupload 3.4,2013-01-19 05:24:00,
2013-01-19 00:30:00,27.0,7.8,32.37,North,0,0.0,0.0,44,0.00,NA,NA,-99.99,wxupload 3.4,2013-01-19 05:30:00,
2013-01-19 00:36:00,26.8,7.6,32.34,North,0,0.0,0.0,44,0.00,NA,NA,-99.99,wxupload 3.4,2013-01-19 05:36:00,
2013-01-19 00:43:00,26.8,7.6,32.34,North,0,0.0,0.0,44,0.00,NA,NA,-99.99,wxupload 3.4,2013-01-19 05:43:00,
2013-01-19 00:48:00,26.6,8.0,32.34,North,0,0.0,0.0,45,0.00,NA,NA,-99.99,wxupload 3.4,2013-01-19 05:48:00,
2013-01-19 00:55:00,26.8,7.6,32.34,North,0,0.0,0.0,44,0.00,NA,NA,-99.99,wxupload 3.4,2013-01-19 05:55:00,
2013-01-19 01:00:00,26.8,8.1,32.34,North,0,0.0,0.0,45,0.00,NA,NA,-99.99,wxupload 3.4,2013-01-19 06:00:00,
2013-01-19 01:06:00,26.8,8.1,32.34,North,0,0.0,0.0,45,0.00,NA,NA,-99.99,wxupload 3.4,2013-01-19 06:06:00,
2013-01-19 01:12:00,26.8,8.1,32.34,North,0,0.0,0.0,45,0.00,NA,NA,-99.99,wxupload 3.4,2013-01-19 06:12:00,
2013-01-19 01:18:00,26.8,8.1,32.34,North,0,0.0,0.0,45,0.00,NA,NA,-99.99,wxupload 3.4,2013-01-19 06:18:00,
2013-01-19 01:25:00,26.8,8.1,32.34,North,0,0.0,0.0,45,0.00,NA,NA,-99.99,wxupload 3.4,2013-01-19 06:25:00,
2013-01-19 01:30:00,27.0,8.3,32.34,North,0,0.0,0.0,45,0.00,NA,NA,-99.99,wxupload 3.4,2013-01-19 06:30:00,
2013-01-19 01:36:00,27.0,8.3,32.34,North,0,0.0,0.0,45,0.00,NA,NA,-99.99,wxupload 3.4,2013-01-19 06:36:00,
2013-01-19 01:42:00,27.0,8.3,32.34,North,0,0.0,0.0,45,0.00,NA,NA,-99.99,wxupload 3.4,2013-01-19 06:42:00,
2013-01-19 01:48:00,27.0,8.8,32.34,North,0,0.0,0.0,46,0.00,NA,NA,-99.99,wxupload 3.4,2013-01-19 06:48:00,
2013-01-19 01:55:00,27.1,9.0,32.34,North,1,0.0,0.0,46,0.00,NA,NA,-99.99,wxupload 3.4,2013-01-19 06:55:00,
2013-01-19 02:00:00,27.1,9.0,32.34,North,1,0.0,0.0,46,0.00,NA,NA,-99.99,wxupload 3.4,2013-01-19 07:00:00,
2013-01-19 02:07:00,27.0,8.8,32.34,WSW,251,0.0,0.0,46,0.00,NA,NA,-99.99,wxupload 3.4,2013-01-19 07:07:00,
2013-01-19 02:12:00,27.0,8.8,32.34,WSW,251,0.0,0.0,46,0.00,NA,NA,-99.99,wxupload 3.4,2013-01-19 07:12:00,
2013-01-19 02:18:00,27.1,9.0,32.34,WSW,251,0.0,0.0,46,0.00,NA,NA,-99.99,wxupload 3.4,2013-01-19 07:18:00,
2013-01-19 02:25:00,27.3,9.6,32.34,WSW,256,0.0,0.0,47,0.00,NA,NA,-99.99,wxupload 3.4,2013-01-19 07:25:00,
2013-01-19 02:30:00,27.3,9.6,32.34,WSW,256,0.0,0.0,47,0.00,NA,NA,-99.99,wxupload 3.4,2013-01-19 07:30:00,
2013-01-19 02:37:00,27.3,9.6,32.34,WSW,256,0.0,0.0,47,0.00,NA,NA,-99.99,wxupload 3.4,2013-01-19 07:37:00,
2013-01-19 02:42:00,27.1,9.0,32.34,WSW,256,0.0,0.0,46,0.00,NA,NA,-99.99,wxupload 3.4,2013-01-19 07:42:00,
2013-01-19 02:48:00,27.1,9.0,32.34,WSW,256,0.0,0.0,46,0.00,NA,NA,-99.99,wxupload 3.4,2013-01-19 07:48:00,
2013-01-19 02:54:00,27.0,8.8,32.34,WSW,256,0.0,0.0,46,0.00,NA,NA,-99.99,wxupload 3.4,2013-01-19 07:54:00,
2013-01-19 03:00:00,26.8,8.6,32.34,WSW,256,0.0,0.0,46,0.00,NA,NA,-99.99,wxupload 3.4,2013-01-19 08:00:00,
2013-01-19 03:07:00,26.6,8.5,32.34,WSW,256,0.0,0.0,46,0.00,NA,NA,-99.99,wxupload 3.4,2013-01-19 08:07:00,
2013-01-19 03:12:00,26.8,8.6,32.34,WSW,256,0.0,0.0,46,0.00,NA,NA,-99.99,wxupload 3.4,2013-01-19 08:12:00,
2013-01-19 03:18:00,26.8,8.6,32.34,WSW,256,0.0,0.0,46,0.00,NA,NA,-99.99,wxupload 3.4,2013-01-19 08:18:00,
2013-01-19 03:24:00,26.8,8.6,32.34,WSW,256,0.0,0.0,46,0.00,NA,NA,-99.99,wxupload 3.4,2013-01-19 08:24:00,
2013-01-19 03:30:00,26.6,8.5,32.34,WSW,256,0.0,0.0,46,0.00,NA,NA,-99.99,wxupload 3.4,2013-01-19 08:30:00,
2013-01-19 03:37:00,26.6,8.5,32.34,WSW,256,0.0,0.0,46,0.00,NA,NA,-99.99,wxupload 3.4,2013-01-19 08:37:00,
2013-01-19 03:42:00,26.4,8.3,32.34,WSW,256,0.0,0.0,46,0.00,NA,NA,-99.99,wxupload 3.4,2013-01-19 08:42:00,
2013-01-19 03:49:00,26.2,8.1,32.31,WSW,256,0.0,0.0,46,0.00,NA,NA,-99.99,wxupload 3.4,2013-01-19 08:49:00,
2013-01-19 03:54:00,26.2,8.1,32.31,WSW,256,0.0,0.0,46,0.00,NA,NA,-99.99,wxupload 3.4,2013-01-19 08:54:00,
2013-01-19 04:00:00,26.2,8.1,32.31,WSW,256,0.0,0.0,46,0.00,NA,NA,-99.99,wxupload 3.4,2013-01-19 09:00:00,
2013-01-19 04:06:00,26.1,8.0,32.31,WSW,256,0.0,0.0,46,0.00,NA,NA,-99.99,wxupload 3.4,2013-01-19 09:06:00,
2013-01-19 04:12:00,26.1,8.5,32.31,WSW,256,0.0,0.0,47,0.00,NA,NA,-99.99,wxupload 3.4,2013-01-19 09:12:00,
2013-01-19 04:19:00,25.9,8.3,32.31,WSW,256,0.0,0.0,47,0.00,NA,NA,-99.99,wxupload 3.4,2013-01-19 09:19:00,
2013-01-19 04:24:00,26.1,8.5,32.31,WSW,256,0.0,0.0,47,0.00,NA,NA,-99.99,wxupload 3.4,2013-01-19 09:24:00,
2013-01-19 04:31:00,26.1,8.5,32.31,WSW,256,0.0,0.0,47,0.00,NA,NA,-99.99,wxupload 3.4,2013-01-19 09:31:00,
2013-01-19 04:36:00,26.1,8.5,32.31,WSW,256,0.0,0.0,47,0.00,NA,NA,-99.99,wxupload 3.4,2013-01-19 09:36:00,
2013-01-19 04:42:00,26.1,8.5,32.31,WSW,256,0.0,0.0,47,0.00,NA,NA,-99.99,wxupload 3.4,2013-01-19 09:42:00,
2013-01-19 04:49:00,26.1,8.5,32.31,WSW,256,0.0,0.0,47,0.00,NA,NA,-99.99,wxupload 3.4,2013-01-19 09:49:00,
2013-01-19 04:54:00,26.1,8.9,32.31,WSW,256,0.0,0.0,48,0.00,NA,NA,-99.99,wxupload 3.4,2013-01-19 09:54:00,
2013-01-19 05:01:00,26.1,8.9,32.31,WSW,256,0.0,0.0,48,0.00,NA,NA,-99.99,wxupload 3.4,2013-01-19 10:01:00,
2013-01-19 05:06:00,26.1,8.9,32.28,WSW,256,0.0,0.0,48,0.00,NA,NA,-99.99,wxupload 3.4,2013-01-19 10:06:00,
2013-01-19 05:12:00,26.1,8.9,32.28,WSW,256,0.0,0.0,48,0.00,NA,NA,-99.99,wxupload 3.4,2013-01-19 10:12:00,
2013-01-19 05:18:00,25.9,8.8,32.28,WSW,256,0.0,0.0,48,0.00,NA,NA,-99.99,wxupload 3.4,2013-01-19 10:18:00,
2013-01-19 05:24:00,25.9,8.3,32.28,WSW,256,0.0,0.0,47,0.00,NA,NA,-99.99,wxupload 3.4,2013-01-19 10:24:00,
2013-01-19 05:31:00,25.7,8.1,32.28,WSW,256,0.0,0.0,47,0.00,NA,NA,-99.99,wxupload 3.4,2013-01-19 10:31:00,
2013-01-19 05:38:00,25.5,8.0,32.28,WSW,256,0.0,0.0,47,0.00,NA,NA,-99.99,wxupload 3.4,2013-01-19 10:38:00,
2013-01-19 05:44:00,25.5,8.0,32.28,WSW,256,0.0,0.0,47,0.00,NA,NA,-99.99,wxupload 3.4,2013-01-19 10:44:00,
2013-01-19 05:51:00,25.5,8.0,32.28,WSW,256,0.0,0.0,47,0.00,NA,NA,-99.99,wxupload 3.4,2013-01-19 10:51:00,
2013-01-19 05:56:00,25.7,8.1,32.28,WSW,256,0.0,0.0,47,0.00,NA,NA,-99.99,wxupload 3.4,2013-01-19 10:56:00,
2013-01-19 06:02:00,25.5,8.0,32.28,WSW,256,0.0,0.0,47,0.00,NA,NA,-99.99,wxupload 3.4,2013-01-19 11:02:00,
2013-01-19 06:09:00,25.7,8.1,32.28,WSW,256,0.0,0.0,47,0.00,NA,NA,-99.99,wxupload 3.4,2013-01-19 11:09:00,
2013-01-19 07:48:00,25.5,8.4,32.28,WSW,256,0.0,0.0,48,0.00,NA,NA,-99.99,wxupload 3.4,2013-01-19 12:48:00,
2013-01-19 07:50:00,25.5,8.4,32.28,WSW,256,0.0,0.0,48,0.00,NA,NA,-99.99,wxupload 3.4,2013-01-19 12:50:00,
2013-01-19 07:56:00,25.5,8.4,32.28,WSW,256,0.0,0.0,48,0.00,NA,NA,-99.99,wxupload 3.4,2013-01-19 12:56:00,
2013-01-19 08:03:00,25.9,9.2,32.28,WSW,256,0.0,0.0,49,0.00,NA,NA,-99.99,wxupload 3.4,2013-01-19 13:03:00,
2013-01-19 08:08:00,26.2,10.0,32.28,WSW,256,0.0,0.0,50,0.00,NA,NA,-99.99,wxupload 3.4,2013-01-19 13:08:00,
2013-01-19 08:15:00,26.4,10.2,32.28,WSW,256,0.0,0.0,50,0.00,NA,NA,-99.99,wxupload 3.4,2013-01-19 13:15:00,
2013-01-19 08:20:00,26.8,10.1,32.28,WSW,256,0.0,0.0,49,0.00,NA,NA,-99.99,wxupload 3.4,2013-01-19 13:20:00,
2013-01-19 08:26:00,27.1,10.4,32.28,WSW,256,0.0,0.0,49,0.00,NA,NA,-99.99,wxupload 3.4,2013-01-19 13:26:00,
2013-01-19 08:33:00,27.7,10.9,32.28,WSW,256,0.0,0.0,49,0.00,NA,NA,-99.99,wxupload 3.4,2013-01-19 13:33:00,
2013-01-19 08:38:00,28.0,11.2,32.28,WSW,256,0.0,0.0,49,0.00,NA,NA,-99.99,wxupload 3.4,2013-01-19 13:38:00,
2013-01-19 08:45:00,28.6,11.3,32.28,WSW,256,0.0,0.0,48,0.00,NA,NA,-99.99,wxupload 3.4,2013-01-19 13:45:00,
2013-01-19 08:50:00,29.1,11.8,32.28,WSW,256,0.0,0.0,48,0.00,NA,NA,-99.99,wxupload 3.4,2013-01-19 13:50:00,
2013-01-19 08:57:00,29.5,12.1,32.28,WSW,256,0.0,0.0,48,0.00,NA,NA,-99.99,wxupload 3.4,2013-01-19 13:57:00,
2013-01-19 09:02:00,29.8,12.0,32.28,WSW,256,0.0,0.0,47,0.00,NA,NA,-99.99,wxupload 3.4,2013-01-19 14:02:00,
2013-01-19 09:08:00,30.2,12.3,32.28,WSW,256,0.0,0.0,47,0.00,NA,NA,-99.99,wxupload 3.4,2013-01-19 14:08:00,
2013-01-19 09:15:00,30.7,12.3,32.28,WSW,256,0.0,0.0,46,0.00,NA,NA,-99.99,wxupload 3.4,2013-01-19 14:15:00,
2013-01-19 09:20:00,31.6,13.1,32.28,SE,130,0.0,0.0,46,0.00,NA,NA,-99.99,wxupload 3.4,2013-01-19 14:20:00,
2013-01-19 09:27:00,32.7,13.6,32.28,SE,143,0.0,0.0,45,0.00,NA,NA,-99.99,wxupload 3.4,2013-01-19 14:27:00,
2013-01-19 09:32:00,33.3,14.1,32.28,NNE,24,0.0,0.0,45,0.00,NA,NA,-99.99,wxupload 3.4,2013-01-19 14:32:00,
2013-01-19 09:38:00,34.2,14.4,32.28,SSW,199,0.0,0.0,44,0.00,NA,NA,-99.99,wxupload 3.4,2013-01-19 14:38:00,
2013-01-19 09:45:00,34.7,14.4,32.28,South,188,0.0,2.0,43,0.00,NA,NA,-99.99,wxupload 3.4,2013-01-19 14:45:00,
2013-01-19 09:50:00,35.2,14.9,32.28,NW,319,0.0,0.0,43,0.00,NA,NA,-99.99,wxupload 3.4,2013-01-19 14:50:00,
2013-01-19 09:57:00,35.8,14.9,32.28,South,177,0.0,0.0,42,0.00,NA,NA,-99.99,wxupload 3.4,2013-01-19 14:57:00,
2013-01-19 10:02:00,36.7,15.7,32.28,SSE,168,0.0,0.0,42,0.00,NA,NA,-99.99,wxupload 3.4,2013-01-19 15:02:00,
2013-01-19 10:08:00,37.4,15.8,32.28,SW,227,0.0,0.0,41,0.00,NA,NA,-99.99,wxupload 3.4,2013-01-19 15:08:00,
2013-01-19 10:15:00,38.1,15.9,32.28,South,175,0.0,0.0,40,0.00,NA,NA,-99.99,wxupload 3.4,2013-01-19 15:15:00,
2013-01-19 10:20:00,38.8,16.5,32.28,South,186,0.0,0.0,40,0.00,NA,NA,-99.99,wxupload 3.4,2013-01-19 15:20:00,
2013-01-19 10:27:00,39.6,15.4,32.28,SSE,152,0.0,0.0,37,0.00,NA,NA,-99.99,wxupload 3.4,2013-01-19 15:27:00,
2013-01-19 10:32:00,39.9,15.1,32.28,SSW,211,0.0,2.0,36,0.00,NA,NA,-99.99,wxupload 3.4,2013-01-19 15:32:00,
2013-01-19 10:39:00,40.5,15.6,32.28,SSW,195,0.0,3.0,36,0.00,NA,NA,-99.99,wxupload 3.4,2013-01-19 15:39:00,
2013-01-19 10:44:00,41.4,15.0,32.28,South,189,0.0,0.0,34,0.00,NA,NA,-99.99,wxupload 3.4,2013-01-19 15:44:00,
2013-01-19 10:50:00,41.7,16.0,32.28,SSE,167,0.0,0.0,35,0.00,NA,NA,-99.99,wxupload 3.4,2013-01-19 15:50:00,
2013-01-19 10:57:00,42.4,16.0,32.28,SW,227,0.0,0.0,34,0.00,NA,NA,-99.99,wxupload 3.4,2013-01-19 15:57:00,
2013-01-19 11:02:00,43.2,14.5,32.25,SSW,204,0.0,3.0,31,0.00,NA,NA,-99.99,wxupload 3.4,2013-01-19 16:02:00,
2013-01-19 11:09:00,43.9,15.2,32.25,SE,139,0.0,0.0,31,0.00,NA,NA,-99.99,wxupload 3.4,2013-01-19 16:09:00,
2013-01-19 11:14:00,44.4,14.9,32.25,North,9,0.0,0.0,30,0.00,NA,NA,-99.99,wxupload 3.4,2013-01-19 16:14:00,
2013-01-19 11:20:00,45.0,14.6,32.25,SW,226,0.0,0.0,29,0.00,NA,NA,-99.99,wxupload 3.4,2013-01-19 16:20:00,
2013-01-19 11:27:00,45.5,15.1,32.25,West,280,0.0,3.0,29,0.00,NA,NA,-99.99,wxupload 3.4,2013-01-19 16:27:00,
2013-01-19 11:32:00,46.0,14.7,32.22,SW,219,0.0,0.0,28,0.00,NA,NA,-99.99,wxupload 3.4,2013-01-19 16:32:00,
2013-01-19 11:39:00,46.2,14.9,32.22,NW,323,0.0,0.0,28,0.00,NA,NA,-99.99,wxupload 3.4,2013-01-19 16:39:00,
2013-01-19 11:44:00,46.8,15.4,32.22,ENE,71,0.0,0.0,28,0.00,NA,NA,-99.99,wxupload 3.4,2013-01-19 16:44:00,
2013-01-19 11:50:00,47.3,15.8,32.22,SW,236,0.0,0.0,28,0.00,NA,NA,-99.99,wxupload 3.4,2013-01-19 16:50:00,
2013-01-19 11:57:00,47.5,16.0,32.22,SE,127,0.0,0.0,28,0.00,NA,NA,-99.99,wxupload 3.4,2013-01-19 16:57:00,
2013-01-19 12:02:00,48.4,15.9,32.19,SSE,154,0.0,0.0,27,0.00,NA,NA,-99.99,wxupload 3.4,2013-01-19 17:02:00,
2013-01-19 12:09:00,48.7,16.2,32.19,South,177,0.0,5.0,27,0.00,NA,NA,-99.99,wxupload 3.4,2013-01-19 17:09:00,
2013-01-19 12:14:00,48.9,16.4,32.19,South,170,0.0,0.0,27,0.00,NA,NA,-99.99,wxupload 3.4,2013-01-19 17:14:00,
2013-01-19 12:21:00,49.1,16.6,32.19,South,189,0.0,0.0,27,0.00,NA,NA,-99.99,wxupload 3.4,2013-01-19 17:21:00,
2013-01-19 12:27:00,49.5,16.9,32.19,WSW,246,0.0,2.0,27,0.00,NA,NA,-99.99,wxupload 3.4,2013-01-19 17:27:00,
2013-01-19 12:32:00,49.6,17.0,32.19,WNW,295,0.0,0.0,27,0.00,NA,NA,-99.99,wxupload 3.4,2013-01-19 17:32:00,
2013-01-19 12:39:00,50.0,16.5,32.19,SW,233,0.0,0.0,26,0.00,NA,NA,-99.99,wxupload 3.4,2013-01-19 17:39:00,
2013-01-19 12:44:00,50.4,16.8,32.19,South,173,0.0,0.0,26,0.00,NA,NA,-99.99,wxupload 3.4,2013-01-19 17:44:00,
2013-01-19 12:52:00,50.7,17.1,32.16,SSW,194,0.0,4.0,26,0.00,NA,NA,-99.99,wxupload 3.4,2013-01-19 17:52:00,
2013-01-19 12:59:00,51.1,17.4,32.16,NW,313,0.0,2.0,26,0.00,NA,NA,-99.99,wxupload 3.4,2013-01-19 17:59:00,
2013-01-19 13:04:00,51.6,17.9,32.16,SSW,210,0.0,5.0,26,0.00,NA,NA,-99.99,wxupload 3.4,2013-01-19 18:04:00,
2013-01-19 13:12:00,51.8,18.0,32.16,North,7,0.0,0.0,26,0.00,NA,NA,-99.99,wxupload 3.4,2013-01-19 18:12:00,
2013-01-19 13:24:00,52.7,16.0,32.16,South,182,0.0,0.0,23,0.00,NA,NA,-99.99,wxupload 3.4,2013-01-19 18:24:00,
2013-01-19 13:31:00,52.9,16.1,32.16,West,266,0.0,0.0,23,0.00,NA,NA,-99.99,wxupload 3.4,2013-01-19 18:31:00,
2013-01-19 13:36:00,53.2,16.4,32.16,SW,225,2.0,4.0,23,0.00,NA,NA,-99.99,wxupload 3.4,2013-01-19 18:36:00,
2013-01-19 13:42:00,53.2,16.4,32.16,SSW,197,0.0,0.0,23,0.00,NA,NA,-99.99,wxupload 3.4,2013-01-19 18:42:00,
2013-01-19 13:49:00,53.2,16.4,32.13,SSW,198,0.0,4.0,23,0.00,NA,NA,-99.99,wxupload 3.4,2013-01-19 18:49:00,
2013-01-19 13:54:00,53.1,16.3,32.13,WSW,237,0.0,3.0,23,0.00,NA,NA,-99.99,wxupload 3.4,2013-01-19 18:54:00,
2013-01-19 14:04:00,52.9,16.1,32.13,ESE,106,0.0,0.0,23,0.00,NA,NA,-99.99,wxupload 3.4,2013-01-19 19:04:00,
2013-01-19 14:14:00,52.5,15.8,32.13,West,267,0.0,5.0,23,0.00,NA,NA,-99.99,wxupload 3.4,2013-01-19 19:14:00,
2013-01-19 14:21:00,52.3,15.7,32.13,SW,232,3.0,6.0,23,0.00,NA,NA,-99.99,wxupload 3.4,2013-01-19 19:21:00,
2013-01-19 14:29:00,52.2,15.5,32.13,NE,42,0.0,2.0,23,0.00,NA,NA,-99.99,wxupload 3.4,2013-01-19 19:29:00,
2013-01-19 14:34:00,52.2,15.5,32.13,WSW,258,0.0,0.0,23,0.00,NA,NA,-99.99,wxupload 3.4,2013-01-19 19:34:00,
2013-01-19 14:41:00,52.0,15.3,32.13,West,276,0.0,0.0,23,0.00,NA,NA,-99.99,wxupload 3.4,2013-01-19 19:41:00,
2013-01-19 14:47:00,51.6,16.0,32.13,WNW,293,0.0,2.0,24,0.00,NA,NA,-99.99,wxupload 3.4,2013-01-19 19:47:00,
2013-01-19 14:53:00,51.3,15.7,32.13,NE,49,2.0,4.0,24,0.00,NA,NA,-99.99,wxupload 3.4,2013-01-19 19:53:00,
2013-01-19 15:03:00,51.1,15.6,32.10,NW,314,0.0,0.0,24,0.00,NA,NA,-99.99,wxupload 3.4,2013-01-19 20:03:00,
2013-01-19 15:08:00,51.1,15.6,32.10,SSE,161,0.0,3.0,24,0.00,NA,NA,-99.99,wxupload 3.4,2013-01-19 20:08:00,
2013-01-19 15:14:00,50.9,15.4,32.10,SSW,211,0.0,0.0,24,0.00,NA,NA,-99.99,wxupload 3.4,2013-01-19 20:14:00,
2013-01-19 15:21:00,50.7,15.2,32.10,South,171,0.0,0.0,24,0.00,NA,NA,-99.99,wxupload 3.4,2013-01-19 20:21:00,
2013-01-19 15:26:00,50.4,14.9,32.10,North,357,0.0,0.0,24,0.00,NA,NA,-99.99,wxupload 3.4,2013-01-19 20:26:00,
2013-01-19 15:33:00,50.5,15.1,32.10,NNW,328,0.0,0.0,24,0.00,NA,NA,-99.99,wxupload 3.4,2013-01-19 20:33:00,
2013-01-19 15:38:00,50.4,14.9,32.10,SW,222,0.0,4.0,24,0.00,NA,NA,-99.99,wxupload 3.4,2013-01-19 20:38:00,
2013-01-19 15:44:00,50.0,14.6,32.10,South,174,0.0,0.0,24,0.00,NA,NA,-99.99,wxupload 3.4,2013-01-19 20:44:00,
2013-01-19 15:51:00,49.8,14.5,32.10,SSW,204,0.0,0.0,24,0.00,NA,NA,-99.99,wxupload 3.4,2013-01-19 20:51:00,
2013-01-19 15:56:00,49.8,14.5,32.10,SW,216,0.0,0.0,24,0.00,NA,NA,-99.99,wxupload 3.4,2013-01-19 20:56:00,
2013-01-19 16:03:00,49.8,14.5,32.10,NNW,334,0.0,0.0,24,0.00,NA,NA,-99.99,wxupload 3.4,2013-01-19 21:03:00,
2013-01-19 16:08:00,49.8,14.5,32.10,SW,232,0.0,0.0,24,0.00,NA,NA,-99.99,wxupload 3.4,2013-01-19 21:08:00,
2013-01-19 16:14:00,49.5,14.2,32.10,SW,214,0.0,0.0,24,0.00,NA,NA,-99.99,wxupload 3.4,2013-01-19 21:14:00,
2013-01-19 16:21:00,49.5,14.2,32.10,South,183,0.0,0.0,24,0.00,NA,NA,-99.99,wxupload 3.4,2013-01-19 21:21:00,
2013-01-19 16:27:00,49.1,13.8,32.10,SW,233,0.0,3.0,24,0.00,NA,NA,-99.99,wxupload 3.4,2013-01-19 21:27:00,
2013-01-19 16:33:00,48.2,13.1,32.10,SSW,199,0.0,0.0,24,0.00,NA,NA,-99.99,wxupload 3.4,2013-01-19 21:33:00,
2013-01-19 16:39:00,48.4,13.2,32.10,SW,232,0.0,0.0,24,0.00,NA,NA,-99.99,wxupload 3.4,2013-01-19 21:39:00,
2013-01-19 16:44:00,48.2,13.1,32.10,SW,235,2.0,0.0,24,0.00,NA,NA,-99.99,wxupload 3.4,2013-01-19 21:44:00,
2013-01-19 16:51:00,47.8,12.7,32.07,SW,220,0.0,0.0,24,0.00,NA,NA,-99.99,wxupload 3.4,2013-01-19 21:51:00,
2013-01-19 16:58:00,47.5,12.4,32.07,North,357,0.0,0.0,24,0.00,NA,NA,-99.99,wxupload 3.4,2013-01-19 21:58:00,
2013-01-19 17:08:00,46.6,11.7,32.07,South,185,0.0,0.0,24,0.00,NA,NA,-99.99,wxupload 3.4,2013-01-19 22:08:00,
2013-01-19 17:14:00,45.9,13.7,32.07,South,185,0.0,0.0,27,0.00,NA,NA,-99.99,wxupload 3.4,2013-01-19 22:14:00,
2013-01-19 17:24:00,45.3,13.2,32.07,SSW,196,0.0,3.0,27,0.00,NA,NA,-99.99,wxupload 3.4,2013-01-19 22:24:00,
2013-01-19 17:31:00,45.1,13.1,32.07,SW,228,0.0,0.0,27,0.00,NA,NA,-99.99,wxupload 3.4,2013-01-19 22:31:00,
2013-01-19 17:38:00,45.1,13.1,32.07,South,188,0.0,0.0,27,0.00,NA,NA,-99.99,wxupload 3.4,2013-01-19 22:38:00,
2013-01-19 17:44:00,44.8,12.8,32.07,SW,234,0.0,0.0,27,0.00,NA,NA,-99.99,wxupload 3.4,2013-01-19 22:44:00,
2013-01-19 17:51:00,44.6,12.6,32.04,NNE,22,0.0,0.0,27,0.00,NA,NA,-99.99,wxupload 3.4,2013-01-19 22:51:00,
2013-01-19 17:56:00,44.2,13.1,32.04,East,85,0.0,3.0,28,0.00,NA,NA,-99.99,wxupload 3.4,2013-01-19 22:56:00,
2013-01-19 18:03:00,44.1,13.0,32.04,SW,228,0.0,0.0,28,0.00,NA,NA,-99.99,wxupload 3.4,2013-01-19 23:03:00,
2013-01-19 18:08:00,43.9,12.8,32.04,South,185,0.0,0.0,28,0.00,NA,NA,-99.99,wxupload 3.4,2013-01-19 23:08:00,
2013-01-19 18:14:00,43.5,12.5,32.04,SW,215,2.0,8.0,28,0.00,NA,NA,-99.99,wxupload 3.4,2013-01-19 23:14:00,
2013-01-19 18:21:00,43.3,12.3,32.07,South,176,0.0,0.0,28,0.00,NA,NA,-99.99,wxupload 3.4,2013-01-19 23:21:00,
2013-01-19 18:26:00,43.2,12.2,32.07,SSW,195,0.0,0.0,28,0.00,NA,NA,-99.99,wxupload 3.4,2013-01-19 23:26:00,
2013-01-19 18:33:00,43.0,12.0,32.07,South,184,0.0,0.0,28,0.00,NA,NA,-99.99,wxupload 3.4,2013-01-19 23:33:00,
2013-01-19 18:38:00,43.0,12.0,32.07,South,178,0.0,0.0,28,0.00,NA,NA,-99.99,wxupload 3.4,2013-01-19 23:38:00,
2013-01-19 18:44:00,42.8,11.9,32.07,West,269,0.0,0.0,28,0.00,NA,NA,-99.99,wxupload 3.4,2013-01-19 23:44:00,
2013-01-19 18:53:00,42.3,12.2,32.07,WNW,284,0.0,0.0,29,0.00,NA,NA,-99.99,wxupload 3.4,2013-01-19 23:53:00,
2013-01-19 18:59:00,42.1,12.0,32.07,SSW,200,0.0,0.0,29,0.00,NA,NA,-99.99,wxupload 3.4,2013-01-19 23:59:00,
2013-01-19 19:04:00,41.9,11.9,32.07,SW,221,0.0,6.0,29,0.00,NA,NA,-99.99,wxupload 3.4,2013-01-20 00:04:00,
2013-01-19 19:14:00,41.5,11.6,32.07,SW,218,0.0,0.0,29,0.00,NA,NA,-99.99,wxupload 3.4,2013-01-20 00:14:00,
2013-01-19 19:21:00,41.4,11.4,32.07,South,184,0.0,0.0,29,0.00,NA,NA,-99.99,wxupload 3.4,2013-01-20 00:21:00,
2013-01-19 19:26:00,41.2,11.2,32.07,SSW,195,0.0,0.0,29,0.00,NA,NA,-99.99,wxupload 3.4,2013-01-20 00:26:00,
2013-01-19 19:33:00,41.2,11.2,32.07,SW,225,0.0,3.0,29,0.00,NA,NA,-99.99,wxupload 3.4,2013-01-20 00:33:00,
2013-01-19 19:39:00,41.2,11.2,32.07,SSW,193,0.0,0.0,29,0.00,NA,NA,-99.99,wxupload 3.4,2013-01-20 00:39:00,
2013-01-19 19:44:00,41.0,11.1,32.07,WNW,300,0.0,0.0,29,0.00,NA,NA,-99.99,wxupload 3.4,2013-01-20 00:44:00,
2013-01-19 19:51:00,41.0,11.1,32.04,NE,41,0.0,0.0,29,0.00,NA,NA,-99.99,wxupload 3.4,2013-01-20 00:51:00,
2013-01-19 19:58:00,40.8,11.7,32.04,NNE,28,0.0,0.0,30,0.00,NA,NA,-99.99,wxupload 3.4,2013-01-20 00:58:00,
2013-01-19 20:04:00,40.5,11.4,32.04,NNE,28,0.0,0.0,30,0.00,NA,NA,-99.99,wxupload 3.4,2013-01-20 01:04:00,
2013-01-19 20:11:00,40.3,11.2,32.04,SSE,164,0.0,0.0,30,0.00,NA,NA,-99.99,wxupload 3.4,2013-01-20 01:11:00,
2013-01-19 20:16:00,40.1,11.1,32.04,SSW,203,0.0,0.0,30,0.00,NA,NA,-99.99,wxupload 3.4,2013-01-20 01:16:00,
2013-01-19 20:23:00,39.9,10.9,32.04,WSW,250,0.0,3.0,30,0.00,NA,NA,-99.99,wxupload 3.4,2013-01-20 01:23:00,
2013-01-19 20:31:00,39.9,11.6,32.04,SSW,205,0.0,0.0,31,0.00,NA,NA,-99.99,wxupload 3.4,2013-01-20 01:31:00,
2013-01-19 20:37:00,40.1,11.8,32.04,NNE,22,0.0,2.0,31,0.00,NA,NA,-99.99,wxupload 3.4,2013-01-20 01:37:00,
2013-01-19 20:43:00,40.3,12.0,32.04,WNW,301,0.0,3.0,31,0.00,NA,NA,-99.99,wxupload 3.4,2013-01-20 01:43:00,
2013-01-19 20:48:00,40.3,12.0,32.04,WNW,285,0.0,0.0,31,0.00,NA,NA,-99.99,wxupload 3.4,2013-01-20 01:48:00,
2013-01-19 20:56:00,40.3,12.0,32.04,SSE,154,0.0,0.0,31,0.00,NA,NA,-99.99,wxupload 3.4,2013-01-20 01:56:00,
2013-01-19 21:03:00,40.1,11.8,32.04,SSW,204,0.0,3.0,31,0.00,NA,NA,-99.99,wxupload 3.4,2013-01-20 02:03:00,
2013-01-19 21:09:00,39.9,11.6,32.04,WNW,298,0.0,0.0,31,0.00,NA,NA,-99.99,wxupload 3.4,2013-01-20 02:09:00,
2013-01-19 21:14:00,40.1,11.8,32.04,South,189,0.0,0.0,31,0.00,NA,NA,-99.99,wxupload 3.4,2013-01-20 02:14:00,
2013-01-19 21:21:00,39.9,11.6,32.04,WNW,284,0.0,0.0,31,0.00,NA,NA,-99.99,wxupload 3.4,2013-01-20 02:21:00,
2013-01-19 21:28:00,39.9,11.6,32.04,SW,235,0.0,0.0,31,0.00,NA,NA,-99.99,wxupload 3.4,2013-01-20 02:28:00,
2013-01-19 21:34:00,39.7,11.5,32.01,WNW,302,0.0,0.0,31,0.00,NA,NA,-99.99,wxupload 3.4,2013-01-20 02:34:00,
2013-01-19 21:41:00,39.7,11.5,32.01,SW,227,0.0,0.0,31,0.00,NA,NA,-99.99,wxupload 3.4,2013-01-20 02:41:00,
2013-01-19 21:49:00,39.7,12.2,32.01,WNW,295,0.0,0.0,32,0.00,NA,NA,-99.99,wxupload 3.4,2013-01-20 02:49:00,
2013-01-19 21:54:00,39.6,12.0,32.01,WSW,258,0.0,0.0,32,0.00,NA,NA,-99.99,wxupload 3.4,2013-01-20 02:54:00,
2013-01-19 22:01:00,39.7,12.2,32.01,SW,221,0.0,0.0,32,0.00,NA,NA,-99.99,wxupload 3.4,2013-01-20 03:01:00,
2013-01-19 22:08:00,39.7,12.2,32.01,SW,236,0.0,0.0,32,0.00,NA,NA,-99.99,wxupload 3.4,2013-01-20 03:08:00,
2013-01-19 22:14:00,39.6,12.0,32.01,SSW,209,0.0,0.0,32,0.00,NA,NA,-99.99,wxupload 3.4,2013-01-20 03:14:00,
2013-01-19 22:21:00,39.4,11.9,32.01,West,263,0.0,4.0,32,0.00,NA,NA,-99.99,wxupload 3.4,2013-01-20 03:21:00,
2013-01-19 22:26:00,39.4,11.9,32.01,WNW,283,0.0,3.0,32,0.00,NA,NA,-99.99,wxupload 3.4,2013-01-20 03:26:00,
2013-01-19 22:33:00,39.2,11.7,32.01,SW,227,0.0,0.0,32,0.00,NA,NA,-99.99,wxupload 3.4,2013-01-20 03:33:00,
2013-01-19 22:39:00,39.4,11.9,32.01,West,274,0.0,0.0,32,0.00,NA,NA,-99.99,wxupload 3.4,2013-01-20 03:39:00,
2013-01-19 22:44:00,39.4,11.9,32.01,West,271,0.0,0.0,32,0.00,NA,NA,-99.99,wxupload 3.4,2013-01-20 03:44:00,
2013-01-19 22:53:00,39.0,11.6,31.98,SW,219,0.0,0.0,32,0.00,NA,NA,-99.99,wxupload 3.4,2013-01-20 03:53:00,
2013-01-19 22:59:00,38.8,12.1,31.98,West,281,0.0,0.0,33,0.00,NA,NA,-99.99,wxupload 3.4,2013-01-20 03:59:00,
2013-01-19 23:04:00,39.0,12.3,31.98,SW,214,0.0,0.0,33,0.00,NA,NA,-99.99,wxupload 3.4,2013-01-20 04:04:00,
2013-01-19 23:11:00,39.2,11.7,31.98,SW,233,0.0,0.0,32,0.00,NA,NA,-99.99,wxupload 3.4,2013-01-20 04:11:00,
2013-01-19 23:19:00,38.8,12.1,31.98,NNE,33,0.0,0.0,33,0.00,NA,NA,-99.99,wxupload 3.4,2013-01-20 04:19:00,
2013-01-19 23:24:00,38.7,11.9,31.98,WNW,282,0.0,0.0,33,0.00,NA,NA,-99.99,wxupload 3.4,2013-01-20 04:24:00,
2013-01-19 23:31:00,38.7,11.9,31.98,SW,225,0.0,0.0,33,0.00,NA,NA,-99.99,wxupload 3.4,2013-01-20 04:31:00,
2013-01-19 23:39:00,38.7,11.2,31.95,West,278,0.0,0.0,32,0.00,NA,NA,-99.99,wxupload 3.4,2013-01-20 04:39:00,
2013-01-19 23:44:00,38.8,11.4,31.95,NE,55,0.0,2.0,32,0.00,NA,NA,-99.99,wxupload 3.4,2013-01-20 04:44:00,
2013-01-19 23:50:00,38.8,11.4,31.95,WSW,256,0.0,0.0,32,0.00,NA,NA,-99.99,wxupload 3.4,2013-01-20 04:50:00,
2013-01-19 23:57:00,39.0,11.6,31.95,NNW,337,0.0,3.0,32,0.00,NA,NA,-99.99,wxupload 3.4,2013-01-20 04:57:00,